« Back
NWS Peachtree City, Ga » Text Product » MCN Terminal Aerodrome Forecast


Printer-friendly Version
Current Version              Previous Versions:   1  2  3  4  5  6  7  8  9  

Terminal Aerodrome Forecast

269
FTUS42 KFFC 231700
TAFMCN
TAF
KMCN 231720Z 2318/2418 31004KT P6SM FEW250
     FM240000 00000KT P6SM SCT250
     FM241600 17003KT P6SM FEW200=



USA.gov is the U.S. government's official web portal to all federal, state and local government web resources and services.